Station info - map view · info · telemetry · weather · raw · status · beacons · messages · bulletins · browse · moving · my account
Callsign, ship name or locator: Clear       
It is possible to search using wildcards (*?) after a prefix. Example: OH*
APRS station AB9SJ - show graphs
Map loading...
Mic-E message: Off duty
Location: 35°49.34' N 106°12.54' W - locator DM65VT47WI - show map - static map
0.5 miles Southwest bearing 218° from White Rock, Los Alamos County, New Mexico, United States [?]
7.1 miles Southeast bearing 130° from Los Alamos, Los Alamos County, New Mexico, United States
48.0 miles Northeast bearing 32° from Rio Rancho, Sandoval County, New Mexico, United States
56.7 miles Northeast bearing 26° from Albuquerque, Bernalillo County, New Mexico, United States
Last position: 2017-01-02 17:07:37 EST (15d 12h16m ago)
2017-01-02 15:07:37 MST local time at White Rock, United States [?]
Altitude: 6447 ft
Course:
Speed: 4 MPH
Last telemetry: 2016-08-28 11:45:44 EDT (142d 18h38m ago) – show telemetry
Ch 1: 459, Ch 2: 621, Ch 3: 0, Ch 4: 0, Ch 5: 0
 1     2     3     4     5     6     7     8 
Device: Kenwood: TH-D72 (ht)
Last path: AB9SJ>SUTYST via TESQUE*,qAR,K5RHD-10 (good)
Positions stored: 47996
Stations near current position of AB9SJ - show more
callsign distance last heard - EST      callsign distance last heard - EST
WD8LJP0.3 miles 110°2016-12-22 19:06:53 NM5WR B0.5 miles 219°2017-01-18 05:23:17
NM5WR-B0.5 miles 219°2017-01-18 05:23:02 DW40750.6 miles 234°2017-01-18 05:23:24
KF5REI-20.6 miles 72°2017-01-17 15:49:17 WD9CMS-36.2 miles 326°2017-01-18 05:18:22
NM5AK-56.5 miles 328°2017-01-16 10:43:24 DW58526.7 miles 327°2017-01-18 05:22:33
NM5U-97.5 miles 306°2017-01-13 22:36:48 EW42717.9 miles 317°2017-01-18 05:23:20
N3XKB-17.9 miles 310°2016-12-28 18:47:53 NM5U8.0 miles 309°2017-01-04 22:32:09
K5PMD-28.2 miles 312°2016-12-25 17:24:23 N4VIP-1011.6 miles 136°2017-01-10 19:23:11
EW065711.9 miles 119°2017-01-18 05:18:56 NM5RM-913.4 miles 217°2017-01-12 12:10:03
EW104714.0 miles 123°2017-01-18 05:17:05 EW428114.7 miles 106°2017-01-18 05:17:45
DW717515.0 miles 101°2017-01-18 05:20:17 KD5THL-116.2 miles 146°2017-01-18 04:51:11
Stations which heard AB9SJ directly on radio –
callsign pkts first heard - EST last heard longest (tx => rx) longest at - EST
W9AIU-8 5 2017-01-01 13:55:50 2017-01-01 14:06:16 EM58CS > EM58AS 8.5 miles 280° 2017-01-01 13:55:50
SAMTNM 2 2017-01-02 16:33:21 2017-01-02 16:50:36 DM75AR > DM66XU 78.6 miles 357° 2017-01-02 16:33:21
KM5HG 6 2017-01-01 20:43:08 2017-01-01 20:48:23 EM26DE > EM26DG 4.1 miles 6° 2017-01-01 20:48:23
SANDIA 8 2017-01-02 15:43:59 2017-01-02 16:32:45 DM75AR > DM65SF 44.9 miles 220° 2017-01-02 16:32:45
KE5KUL 23 2017-01-02 02:30:45 2017-01-02 03:05:05 DM95DE > DM95BD 12.6 miles 252° 2017-01-02 02:30:45
CAPILA 9 2017-01-02 15:35:50 2017-01-02 16:16:52 DM75BN > DM64TQ 66.3 miles 207° 2017-01-02 16:16:52
TESQUE 41 2017-01-02 15:05:07 2017-01-02 17:07:32 DM74NX > DM75CS 75.2 miles 319° 2017-01-02 15:05:07
TAPIA 1 2017-01-02 15:41:58 2017-01-02 15:41:58 DM75DB > DM75EC 5.0 miles 43° 2017-01-02 15:41:58
WAYSID 1 2017-01-02 02:12:55 2017-01-02 02:12:55 DM95IE > DM94FT 30.3 miles 208° 2017-01-02 02:12:55
KC5LFD-15 4 2017-01-01 13:44:25 2017-01-01 13:54:49 EM58CS > EM58ES 6.4 miles 83° 2017-01-01 13:54:49
WA0TOP-1 2 2017-01-01 15:41:01 2017-01-01 15:42:02 EM48GB > EM48HB 5.1 miles 91° 2017-01-01 15:42:02
KEETON 21 2017-01-01 20:29:49 2017-01-01 21:13:56 EM16WA > EM26DH 30.0 miles 45° 2017-01-01 21:13:56
MOUNDS 20 2017-01-01 21:10:54 2017-01-01 21:42:29 EM15QS > EM15WU 27.8 miles 79° 2017-01-01 21:42:29
STULSA 10 2017-01-01 20:53:23 2017-01-01 21:07:47 EM26CD > EM26BB 9.2 miles 228° 2017-01-01 20:53:23
N5TEX-1 2 2017-01-01 21:01:07 2017-01-01 21:08:19 EM26BC > EM16WD 10.7 miles 285° 2017-01-01 21:01:07
AE5ME-10 1 2017-01-01 20:52:22 2017-01-01 20:52:22 EM26CD > EM26CA 10.4 miles 202° 2017-01-01 20:52:22
AD9OV-15 2 2017-01-01 13:27:58 2017-01-01 13:28:59 EM58JW > EM58HV 10.1 miles 253° 2017-01-01 13:27:58
AD9OV-4 2 2017-01-01 13:38:14 2017-01-01 13:49:42 EM58GU > EM58FS 8.2 miles 226° 2017-01-01 13:38:14
AD9OV-8 6 2017-01-01 13:31:03 2017-01-01 13:43:23 EM58FU > EM58IX 15.8 miles 46° 2017-01-01 13:43:23
AD0EC 1 2017-01-01 16:17:09 2017-01-01 16:17:09 EM37WT > EM37WT 1.0 miles 191° 2017-01-01 16:17:09
NORMAN 1 2017-01-01 23:00:14 2017-01-01 23:00:14 EM15DL > EM15HF 24.9 miles 132° 2017-01-01 23:00:14
W5GDL-5 20 2017-01-01 22:33:50 2017-01-01 22:59:14 EM15IP > EM15FL 17.2 miles 230° 2017-01-01 22:33:50
W0AAF-1 6 2017-01-01 14:33:23 2017-01-01 14:41:34 EM48QM > EM48RN 5.9 miles 48° 2017-01-01 14:41:34
JOPLIN 31 2017-01-01 18:52:59 2017-01-01 19:53:07 EM26NT > EM27TC 32.2 miles 52° 2017-01-01 19:53:07
KA0ATT-10 30 2017-01-01 14:03:06 2017-01-01 14:47:13 EM48PM > EM48VP 29.2 miles 72° 2017-01-01 14:47:13

Only position packets which were originated by the station are shown here. The range statistics show some extra long hops, because some digipeaters do not correctly add themselves to the digipeater path. Please check the raw packets.
About this site
This page shows real-time information collected from the Automatic Position Reporting System Internet network (APRS-IS). APRS is used by amateur (ham) radio operators to transmit real-time position information, weather data, telemetry and messages over the radio. A vehicle equipped with a GPS receiver, a VHF transmitter or HF transceiver and a small computer device called a tracker transmits it's location, speed and course in a small data packet, which is then received by a nearby iGate receiving site which forwards the packet on the Internet. Systems connected to the Internet can send information on the APRS-IS without a radio transmitter, or collect and display information transmitted anywhere in the world.
FAQ · Blog · Discussion group · Linking to aprs.fi · AIS sites · Service status · Database statistics · Advertising on aprs.fi · Technical details · API · Change log · Planned changes · Credits and thanks · Terms Of Service · iPhone/iPad APRS